createdAt,value
2023-01-23T00:00:17.283Z,102559.06
2023-01-23T00:02:45.944Z,102563.28
2023-01-23T00:05:14.633Z,102561.25
2023-01-23T00:07:43.029Z,102564.59
2023-01-23T00:10:14.868Z,102567.09
2023-01-23T00:12:44.841Z,102569.91
2023-01-23T00:15:14.923Z,102562.28
2023-01-23T00:17:45.190Z,102557.53
2023-01-23T00:20:14.414Z,102555.09
2023-01-23T00:22:42.972Z,102551.56
2023-01-23T00:25:11.643Z,102556.41
2023-01-23T00:27:40.077Z,102563.75
2023-01-23T00:30:09.859Z,102558.44
2023-01-23T00:32:39.630Z,102560.03
2023-01-23T00:35:08.761Z,102552.66
2023-01-23T00:37:37.425Z,102554.06
2023-01-23T00:40:07.074Z,102563.28
2023-01-23T00:42:35.665Z,102559.00
2023-01-23T00:45:04.514Z,102566.25
2023-01-23T00:47:33.103Z,102561.25
2023-01-23T00:50:03.203Z,102560.03
2023-01-23T00:52:31.676Z,102561.13
2023-01-23T00:55:00.119Z,102553.03
2023-01-23T00:57:28.947Z,102565.75
2023-01-23T00:59:57.348Z,102565.69
2023-01-23T01:02:26.040Z,102564.34
2023-01-23T01:04:54.457Z,102562.72
2023-01-23T01:07:24.420Z,102572.31
2023-01-23T01:09:53.044Z,102563.38
2023-01-23T01:12:21.702Z,102560.88
2023-01-23T01:14:50.266Z,102559.75
2023-01-23T01:17:18.794Z,102568.97
2023-01-23T01:19:47.274Z,102565.88
2023-01-23T01:22:15.843Z,102571.28
2023-01-23T01:24:46.070Z,102575.75
2023-01-23T01:27:14.657Z,102581.53
2023-01-23T01:29:43.208Z,102581.16
2023-01-23T01:32:11.712Z,102589.06
2023-01-23T01:34:40.089Z,102598.63
2023-01-23T01:37:08.560Z,102595.84
2023-01-23T01:39:37.245Z,102601.97
2023-01-23T01:42:07.145Z,102596.47
2023-01-23T01:44:54.327Z,102595.09
2023-01-23T01:47:23.190Z,102594.91
2023-01-23T01:49:53.505Z,102599.47
2023-01-23T01:52:24.277Z,102597.78
2023-01-23T01:54:56.992Z,102602.88
2023-01-23T01:57:29.888Z,102602.81
2023-01-23T02:00:01.775Z,102602.16
2023-01-23T02:02:34.009Z,102604.63
2023-01-23T02:05:05.346Z,102610.34
2023-01-23T02:07:38.359Z,102609.19
2023-01-23T02:10:09.276Z,102611.72
2023-01-23T02:12:39.945Z,102613.50
2023-01-23T02:15:10.082Z,102600.84
2023-01-23T02:17:38.855Z,102613.41
2023-01-23T02:20:14.322Z,102601.41
2023-01-23T02:22:55.812Z,102594.63
2023-01-23T02:25:31.686Z,102596.19
2023-01-23T02:28:02.363Z,102592.84
2023-01-23T02:30:30.921Z,102601.22
2023-01-23T02:33:09.252Z,102606.06
2023-01-23T02:35:38.925Z,102610.00
2023-01-23T02:38:07.689Z,102601.00
2023-01-23T02:40:38.453Z,102600.59
2023-01-23T02:43:11.946Z,102589.88
2023-01-23T02:45:40.868Z,102590.53
2023-01-23T02:48:09.847Z,102587.94
2023-01-23T02:50:38.384Z,102580.66
2023-01-23T02:53:07.167Z,102580.50
2023-01-23T02:55:37.833Z,102579.47
2023-01-23T02:58:21.711Z,102572.75
2023-01-23T03:00:50.496Z,102561.13
2023-01-23T03:03:18.939Z,102565.34
2023-01-23T03:05:48.455Z,102571.00
2023-01-23T03:08:17.044Z,102573.13
2023-01-23T03:10:45.573Z,102583.81
2023-01-23T03:13:17.250Z,102578.97
2023-01-23T03:15:45.666Z,102590.63
2023-01-23T03:18:14.181Z,102590.81
2023-01-23T03:20:43.393Z,102596.94
2023-01-23T03:23:12.013Z,102593.31
2023-01-23T03:25:44.585Z,102605.41
2023-01-23T03:28:33.253Z,102602.44
2023-01-23T03:31:02.290Z,102605.78
2023-01-23T03:33:30.815Z,102604.72
2023-01-23T03:35:59.232Z,102609.16
2023-01-23T03:38:27.717Z,102612.22
2023-01-23T03:41:28.132Z,102625.47
2023-01-23T03:43:57.742Z,102621.75
2023-01-23T03:46:28.302Z,102619.06
2023-01-23T03:48:56.800Z,102625.19
2023-01-23T03:51:25.334Z,102626.88
2023-01-23T03:53:54.099Z,102628.53
2023-01-23T03:56:22.676Z,102629.38
2023-01-23T03:58:51.121Z,102633.94
2023-01-23T04:01:19.922Z,102635.44
2023-01-23T04:03:50.910Z,102625.84
2023-01-23T04:06:19.870Z,102615.72
2023-01-23T04:08:48.430Z,102617.50
2023-01-23T04:11:16.983Z,102622.91
2023-01-23T04:13:48.195Z,102621.97
2023-01-23T04:16:17.007Z,102626.34
2023-01-23T04:18:45.518Z,102632.47
2023-01-23T04:21:15.471Z,102628.84
2023-01-23T04:23:43.990Z,102639.00
2023-01-23T04:26:12.392Z,102628.72
2023-01-23T04:28:41.287Z,102633.22
2023-01-23T04:31:10.193Z,102633.28
2023-01-23T04:33:38.606Z,102641.69
2023-01-23T04:36:08.287Z,102640.47
2023-01-23T04:38:38.233Z,102636.94
2023-01-23T04:41:06.879Z,102639.13
2023-01-23T04:43:35.850Z,102643.38
2023-01-23T04:46:04.415Z,102642.66
2023-01-23T04:48:32.885Z,102636.19
2023-01-23T04:51:01.354Z,102623.38
2023-01-23T04:53:29.949Z,102627.56
2023-01-23T04:55:59.864Z,102630.91
2023-01-23T04:58:28.530Z,102623.56
2023-01-23T05:01:02.751Z,102629.34
2023-01-23T05:03:32.815Z,102632.00
2023-01-23T05:06:01.384Z,102629.31
2023-01-23T05:08:29.817Z,102624.75
2023-01-23T05:10:59.656Z,102623.06
2023-01-23T05:13:28.035Z,102626.69
2023-01-23T05:15:58.265Z,102625.31
2023-01-23T05:18:27.123Z,102637.84
2023-01-23T05:20:55.490Z,102642.63
2023-01-23T05:23:23.969Z,102639.63
2023-01-23T05:25:52.609Z,102641.41
2023-01-23T05:28:22.809Z,102636.22
2023-01-23T05:30:51.381Z,102638.50
2023-01-23T05:33:19.955Z,102641.81
2023-01-23T05:35:48.368Z,102652.50
2023-01-23T05:38:16.889Z,102653.78
2023-01-23T05:40:45.544Z,102661.88
2023-01-23T05:43:15.719Z,102655.31
2023-01-23T05:45:45.498Z,102653.66
2023-01-23T05:48:13.936Z,102660.88
2023-01-23T05:50:42.647Z,102662.63
2023-01-23T05:53:11.404Z,102653.78
2023-01-23T05:55:40.155Z,102657.28
2023-01-23T05:58:08.657Z,102661.06
2023-01-23T06:00:37.621Z,102670.78
2023-01-23T06:03:09.803Z,102664.97
2023-01-23T06:05:38.703Z,102661.25
2023-01-23T06:08:07.884Z,102666.25
2023-01-23T06:10:38.202Z,102668.88
2023-01-23T06:13:06.682Z,102673.63
2023-01-23T06:15:35.209Z,102681.91
2023-01-23T06:18:03.969Z,102690.22
2023-01-23T06:20:33.811Z,102678.56
2023-01-23T06:23:02.247Z,102688.75
2023-01-23T06:25:30.873Z,102690.47
2023-01-23T06:27:59.368Z,102680.31
2023-01-23T06:30:28.337Z,102684.13
2023-01-23T06:32:56.971Z,102687.84
2023-01-23T06:35:25.706Z,102689.00
2023-01-23T06:37:55.689Z,102689.00
2023-01-23T06:40:24.118Z,102688.44
2023-01-23T06:42:55.927Z,102694.38
2023-01-23T06:45:24.685Z,102693.94
2023-01-23T06:47:53.490Z,102703.50
2023-01-23T06:50:22.444Z,102708.16
2023-01-23T06:52:51.075Z,102709.94
2023-01-23T06:55:21.243Z,102709.50
2023-01-23T06:57:50.027Z,102715.97
2023-01-23T07:00:23.602Z,102719.00
2023-01-23T07:02:53.111Z,102724.69
2023-01-23T07:05:22.316Z,102721.75
2023-01-23T07:07:53.426Z,102730.50
2023-01-23T07:10:24.175Z,102734.69
2023-01-23T07:12:52.909Z,102730.13
2023-01-23T07:15:21.654Z,102730.13
2023-01-23T07:17:50.419Z,102741.75
2023-01-23T07:20:19.719Z,102743.44
2023-01-23T07:22:49.911Z,102746.31
2023-01-23T07:25:18.467Z,102738.59
2023-01-23T07:27:48.662Z,102748.38
2023-01-23T07:30:18.937Z,102747.34
2023-01-23T07:32:47.703Z,102756.81
2023-01-23T07:35:16.434Z,102756.44
2023-01-23T07:37:44.882Z,102751.81
2023-01-23T07:40:14.433Z,102757.50
2023-01-23T07:42:42.899Z,102753.47
2023-01-23T07:45:14.175Z,102752.91
2023-01-23T07:47:44.815Z,102761.00
2023-01-23T07:50:16.247Z,102764.06
2023-01-23T07:52:44.801Z,102769.00
2023-01-23T07:55:22.099Z,102765.09
2023-01-23T07:57:50.777Z,102772.75
2023-01-23T08:00:24.294Z,102771.81
2023-01-23T08:02:53.403Z,102768.19
2023-01-23T08:05:21.984Z,102774.34
2023-01-23T08:07:52.292Z,102769.59
2023-01-23T08:10:26.620Z,102767.06
2023-01-23T08:12:55.211Z,102773.88
2023-01-23T08:15:25.125Z,102773.06
2023-01-23T08:17:54.703Z,102774.94
2023-01-23T08:20:23.627Z,102769.81
2023-01-23T08:22:52.579Z,102773.16
2023-01-23T08:25:21.059Z,102773.91
2023-01-23T08:27:49.558Z,102773.53
2023-01-23T08:30:18.844Z,102784.59
2023-01-23T08:32:49.113Z,102785.03
2023-01-23T08:35:17.743Z,102784.66
2023-01-23T08:37:46.260Z,102789.78
2023-01-23T08:40:14.892Z,102784.28
2023-01-23T08:42:44.535Z,102791.38
2023-01-23T08:45:17.043Z,102794.38
2023-01-23T08:47:45.811Z,102793.44
2023-01-23T08:50:15.867Z,102800.31
2023-01-23T08:52:44.521Z,102798.44
2023-01-23T08:55:13.823Z,102799.00
2023-01-23T08:57:42.266Z,102806.06
2023-01-23T09:00:13.032Z,102795.50
2023-01-23T09:02:41.591Z,102798.56
2023-01-23T09:05:10.696Z,102798.13
2023-01-23T09:07:40.952Z,102801.94
2023-01-23T09:10:11.317Z,102799.13
2023-01-23T09:12:42.686Z,102802.19
2023-01-23T09:15:11.997Z,102813.81
2023-01-23T09:17:40.651Z,102803.91
2023-01-23T09:20:12.113Z,102811.88
2023-01-23T09:22:42.962Z,102813.44
2023-01-23T09:25:12.225Z,102802.19
2023-01-23T09:27:41.428Z,102813.47
2023-01-23T09:30:11.313Z,102799.56
2023-01-23T09:32:39.943Z,102804.81
2023-01-23T09:35:09.482Z,102806.63
2023-01-23T09:37:58.467Z,102810.16
2023-01-23T09:40:30.917Z,102808.63
2023-01-23T09:43:17.000Z,102820.34
2023-01-23T09:45:54.800Z,102817.13
2023-01-23T09:48:29.600Z,102821.25
2023-01-23T09:51:03.288Z,102823.97
2023-01-23T09:53:38.315Z,102821.09
2023-01-23T09:56:19.079Z,102825.38
2023-01-23T09:59:00.285Z,102822.88
2023-01-23T10:01:31.881Z,102825.50
2023-01-23T10:04:02.102Z,102822.69
2023-01-23T10:06:32.915Z,102822.72
2023-01-23T10:09:27.166Z,102824.78
2023-01-23T10:12:05.404Z,102818.94
2023-01-23T10:14:50.768Z,102819.13
2023-01-23T10:17:25.516Z,102829.44
2023-01-23T10:20:15.643Z,102826.81
2023-01-23T10:22:57.597Z,102825.56
2023-01-23T10:25:33.263Z,102826.81
2023-01-23T10:28:19.341Z,102826.41
2023-01-23T10:30:56.259Z,102826.59
2023-01-23T10:33:34.639Z,102823.91
2023-01-23T10:36:15.101Z,102828.97
2023-01-23T10:39:00.118Z,102811.66
2023-01-23T10:41:32.260Z,102817.44
2023-01-23T10:44:15.440Z,102817.16
2023-01-23T10:46:50.875Z,102817.47
2023-01-23T10:49:36.403Z,102824.25
2023-01-23T10:52:10.455Z,102824.75
2023-01-23T10:54:48.764Z,102818.09
2023-01-23T10:57:24.841Z,102817.19
2023-01-23T11:00:07.016Z,102822.06
2023-01-23T11:02:41.237Z,102817.03
2023-01-23T11:05:52.573Z,102814.34
2023-01-23T11:08:31.977Z,102819.81
2023-01-23T11:11:23.035Z,102813.03
2023-01-23T11:14:09.569Z,102805.09
2023-01-23T11:16:46.388Z,102803.84
2023-01-23T11:19:22.643Z,102795.72
2023-01-23T11:21:58.155Z,102801.88
2023-01-23T11:24:41.435Z,102802.41
2023-01-23T11:27:24.320Z,102814.06
2023-01-23T11:30:43.030Z,102804.41
2023-01-23T11:33:51.818Z,102811.75
2023-01-23T11:36:50.565Z,102810.38
2023-01-23T11:39:44.561Z,102811.94
2023-01-23T11:42:16.273Z,102809.09
2023-01-23T11:44:46.888Z,102804.16
2023-01-23T11:47:42.757Z,102809.44
2023-01-23T11:50:54.884Z,102807.44
2023-01-23T11:53:42.997Z,102814.25
2023-01-23T11:56:27.211Z,102804.28
2023-01-23T11:59:17.943Z,102809.88
2023-01-23T12:02:03.691Z,102791.56
2023-01-23T12:05:04.129Z,102798.00
2023-01-23T12:07:43.184Z,102792.75
2023-01-23T12:10:25.144Z,102795.88
2023-01-23T12:13:20.884Z,102794.47
2023-01-23T12:16:07.558Z,102798.00
2023-01-23T12:18:45.095Z,102778.59
2023-01-23T12:21:24.585Z,102791.53
2023-01-23T12:24:12.543Z,102795.22
2023-01-23T12:26:58.974Z,102785.84
2023-01-23T12:29:45.646Z,102792.34
2023-01-23T12:32:33.256Z,102801.97
2023-01-23T12:35:19.053Z,102796.97
2023-01-23T12:38:04.483Z,102799.06
2023-01-23T12:40:48.277Z,102792.38
2023-01-23T12:43:24.718Z,102790.28
2023-01-23T12:46:06.964Z,102798.22
2023-01-23T12:48:40.294Z,102799.91
2023-01-23T12:51:13.693Z,102794.91
2023-01-23T12:53:45.993Z,102792.78
2023-01-23T12:56:25.866Z,102789.88
2023-01-23T12:59:08.302Z,102795.03
2023-01-23T13:01:50.657Z,102799.34
2023-01-23T13:04:44.314Z,102800.63
2023-01-23T13:07:38.322Z,102798.47
2023-01-23T13:10:26.441Z,102805.88
2023-01-23T13:13:02.938Z,102801.75
2023-01-23T13:15:41.842Z,102801.47
2023-01-23T13:18:24.445Z,102798.03
2023-01-23T13:21:16.074Z,102799.72
2023-01-23T13:23:45.155Z,102793.84
2023-01-23T13:26:29.000Z,102802.66
2023-01-23T13:29:04.274Z,102796.41
2023-01-23T13:31:40.153Z,102799.91
2023-01-23T13:34:38.022Z,102795.66
2023-01-23T13:37:51.194Z,102799.84
2023-01-23T13:40:25.646Z,102806.94
2023-01-23T13:42:54.287Z,102812.38
2023-01-23T13:45:32.012Z,102804.63
2023-01-23T14:23:35.287Z,102819.59
2023-01-23T14:26:05.937Z,102812.81
2023-01-23T14:28:34.539Z,102822.56
2023-01-23T14:31:06.682Z,102820.91
2023-01-23T14:33:45.957Z,102821.94
2023-01-23T14:36:19.693Z,102812.38
2023-01-23T14:38:51.088Z,102827.06
2023-01-23T14:41:31.723Z,102822.41
2023-01-23T14:44:03.477Z,102823.72
2023-01-23T14:46:40.146Z,102818.81
2023-01-23T14:49:15.703Z,102827.44
2023-01-23T14:51:57.115Z,102829.13
2023-01-23T14:54:29.621Z,102822.56
2023-01-23T14:57:08.047Z,102829.88
2023-01-23T14:59:42.360Z,102826.31
2023-01-23T15:02:26.874Z,102828.97
2023-01-23T15:05:08.874Z,102828.59
2023-01-23T15:07:46.085Z,102826.16
2023-01-23T15:10:17.481Z,102826.44
2023-01-23T15:12:53.071Z,102830.53
2023-01-23T15:15:24.922Z,102841.53
2023-01-23T15:17:56.010Z,102839.84
2023-01-23T15:20:36.319Z,102840.44
2023-01-23T15:23:24.973Z,102833.66
2023-01-23T15:26:25.326Z,102835.31
2023-01-23T15:28:55.652Z,102833.06
2023-01-23T15:31:27.527Z,102829.53
2023-01-23T15:33:58.494Z,102821.34
2023-01-23T15:36:30.480Z,102826.56
2023-01-23T15:39:00.943Z,102829.53
2023-01-23T15:41:40.399Z,102832.56
2023-01-23T15:44:14.169Z,102834.69
2023-01-23T15:46:43.076Z,102828.88
2023-01-23T15:49:24.338Z,102829.78
2023-01-23T15:51:56.111Z,102830.19
2023-01-23T15:54:32.084Z,102828.38
2023-01-23T15:57:07.565Z,102825.34
2023-01-23T15:59:37.943Z,102814.47
2023-01-23T16:02:12.826Z,102809.59
2023-01-23T16:04:47.708Z,102803.75
2023-01-23T16:07:23.851Z,102806.38
2023-01-23T16:09:55.157Z,102805.44
2023-01-23T16:12:29.343Z,102803.94
2023-01-23T16:14:59.165Z,102802.81
2023-01-23T16:17:27.767Z,102803.78
2023-01-23T16:19:56.265Z,102802.38
2023-01-23T16:22:29.284Z,102802.38
2023-01-23T16:25:02.330Z,102791.75
2023-01-23T16:27:32.187Z,102796.69
2023-01-23T16:30:00.633Z,102787.44
2023-01-23T16:32:29.310Z,102800.00
2023-01-23T16:35:13.154Z,102804.31
2023-01-23T16:37:53.698Z,102806.09
2023-01-23T16:40:29.502Z,102805.19
2023-01-23T16:43:00.005Z,102809.94
2023-01-23T16:45:34.171Z,102813.94
2023-01-23T16:48:03.904Z,102811.13
2023-01-23T16:50:37.094Z,102813.94
2023-01-23T16:53:12.544Z,102814.75
2023-01-23T16:55:45.128Z,102815.31
2023-01-23T16:58:18.502Z,102813.13
2023-01-23T17:00:47.951Z,102821.94
2023-01-23T17:03:27.685Z,102815.25
2023-01-23T17:05:56.764Z,102818.06
2023-01-23T17:08:26.455Z,102804.81
2023-01-23T17:11:04.298Z,102814.84
2023-01-23T17:13:35.763Z,102819.22
2023-01-23T17:16:12.745Z,102814.03
2023-01-23T17:18:50.730Z,102824.38
2023-01-23T17:21:23.492Z,102811.50
2023-01-23T17:23:52.235Z,102825.13
2023-01-23T17:26:22.195Z,102827.56
2023-01-23T17:28:53.852Z,102812.59
2023-01-23T17:31:32.692Z,102822.16
2023-01-23T17:34:04.275Z,102817.16
2023-01-23T17:36:33.825Z,102823.41
2023-01-23T17:39:02.586Z,102818.94
2023-01-23T17:41:41.310Z,102822.28
2023-01-23T17:44:10.062Z,102820.91
2023-01-23T17:46:43.042Z,102815.91
2023-01-23T17:49:29.230Z,102820.47
2023-01-23T17:52:01.474Z,102816.34
2023-01-23T17:54:30.061Z,102813.03
2023-01-23T17:57:00.026Z,102821.31
2023-01-23T17:59:34.703Z,102817.78
2023-01-23T18:02:29.804Z,102810.47
2023-01-23T18:05:01.049Z,102815.53
2023-01-23T18:07:29.916Z,102826.03
2023-01-23T18:09:58.728Z,102824.25
2023-01-23T18:12:40.963Z,102820.91
2023-01-23T18:15:18.124Z,102817.78
2023-01-23T18:17:56.038Z,102821.28
2023-01-23T18:20:35.575Z,102829.19
2023-01-23T18:23:12.920Z,102831.69
2023-01-23T18:25:46.157Z,102830.41
2023-01-23T18:28:24.028Z,102825.38
2023-01-23T18:31:00.724Z,102835.63
2023-01-23T18:33:48.502Z,102834.78
2023-01-23T18:36:31.158Z,102843.25
2023-01-23T18:39:16.453Z,102850.16
2023-01-23T18:42:04.734Z,102847.50
2023-01-23T18:44:35.918Z,102845.06
2023-01-23T18:47:11.727Z,102847.34
2023-01-23T18:49:44.274Z,102851.84
2023-01-23T18:52:18.028Z,102854.84
2023-01-23T18:54:54.676Z,102844.31
2023-01-23T18:57:45.323Z,102848.78
2023-01-23T19:00:19.897Z,102850.84
2023-01-23T19:02:57.095Z,102851.78
2023-01-23T19:05:31.374Z,102864.25
2023-01-23T19:08:01.292Z,102864.63
2023-01-23T19:10:47.571Z,102862.66
2023-01-23T19:13:21.058Z,102865.44
2023-01-23T19:16:05.492Z,102861.91
2023-01-23T19:18:45.834Z,102868.53
2023-01-23T19:21:23.008Z,102864.78
2023-01-23T19:23:58.017Z,102861.44
2023-01-23T19:26:29.533Z,102866.84
2023-01-23T19:29:05.649Z,102861.81
2023-01-23T19:32:06.529Z,102864.41
2023-01-23T19:34:35.957Z,102862.94
2023-01-23T19:37:08.660Z,102865.34
2023-01-23T19:39:51.635Z,102864.41
2023-01-23T19:42:58.730Z,102875.22
2023-01-23T19:45:36.047Z,102871.88
2023-01-23T19:48:06.845Z,102875.25
2023-01-23T19:50:35.951Z,102882.31
2023-01-23T19:53:05.670Z,102885.03
2023-01-23T19:55:38.683Z,102894.72
2023-01-23T19:58:08.236Z,102887.28
2023-01-23T20:00:37.093Z,102890.53
2023-01-23T20:03:16.552Z,102889.00
2023-01-23T20:05:45.306Z,102884.81
2023-01-23T20:08:13.759Z,102882.75
2023-01-23T20:10:43.615Z,102898.22
2023-01-23T20:13:12.716Z,102891.38
2023-01-23T20:15:44.386Z,102892.56
2023-01-23T20:18:16.228Z,102898.06
2023-01-23T20:20:44.829Z,102903.38
2023-01-23T20:23:14.182Z,102915.69
2023-01-23T20:25:42.641Z,102911.53
2023-01-23T20:28:13.941Z,102913.00
2023-01-23T20:30:42.562Z,102902.31
2023-01-23T20:33:11.809Z,102908.59
2023-01-23T20:35:43.785Z,102900.34
2023-01-23T20:38:13.298Z,102909.75
2023-01-23T20:40:43.379Z,102912.09
2023-01-23T20:43:15.230Z,102902.97
2023-01-23T20:45:50.424Z,102905.66
2023-01-23T20:48:24.467Z,102895.22
2023-01-23T20:50:58.655Z,102900.25
2023-01-23T20:53:38.726Z,102905.00
2023-01-23T20:56:13.488Z,102890.94
2023-01-23T20:59:01.981Z,102896.34
2023-01-23T21:01:53.709Z,102893.38
2023-01-23T21:04:24.049Z,102882.94
2023-01-23T21:06:57.291Z,102878.56
2023-01-23T21:09:26.061Z,102883.31
2023-01-23T21:11:55.386Z,102877.06
2023-01-23T21:14:27.368Z,102886.47
2023-01-23T21:16:59.092Z,102874.75
2023-01-23T21:19:28.375Z,102881.44
2023-01-23T21:22:06.431Z,102883.78
2023-01-23T21:24:36.042Z,102884.44
2023-01-23T21:27:05.397Z,102880.38
2023-01-23T21:29:34.737Z,102886.16
2023-01-23T21:32:03.604Z,102879.69
2023-01-23T21:34:32.782Z,102886.47
2023-01-23T21:37:03.634Z,102876.03
2023-01-23T21:39:32.609Z,102886.00
2023-01-23T21:42:01.274Z,102886.84
2023-01-23T21:44:29.735Z,102878.50
2023-01-23T21:46:58.252Z,102882.41
2023-01-23T21:49:26.889Z,102878.94
2023-01-23T21:51:55.584Z,102881.91
2023-01-23T21:54:25.724Z,102886.66
2023-01-23T21:56:54.144Z,102890.00
2023-01-23T21:59:22.652Z,102885.44
2023-01-23T22:01:50.426Z,102887.78
2023-01-23T22:04:22.305Z,102890.38
2023-01-23T22:06:54.862Z,102891.16
2023-01-23T22:09:26.213Z,102886.38
2023-01-23T22:11:55.663Z,102888.28
2023-01-23T22:14:24.242Z,102883.69
2023-01-23T22:16:52.874Z,102882.09
2023-01-23T22:19:25.637Z,102891.16
2023-01-23T22:21:55.076Z,102880.38
2023-01-23T22:24:25.393Z,102883.06
2023-01-23T22:26:53.806Z,102879.06
2023-01-23T22:29:22.800Z,102880.56
2023-01-23T22:31:52.140Z,102887.88
2023-01-23T22:34:21.343Z,102893.69
2023-01-23T22:36:49.973Z,102886.28
2023-01-23T22:39:19.742Z,102886.84
2023-01-23T22:41:51.045Z,102889.66
2023-01-23T22:44:20.014Z,102888.28
2023-01-23T22:46:51.384Z,102888.34
2023-01-23T22:49:20.928Z,102888.06
2023-01-23T22:51:51.552Z,102888.28
2023-01-23T22:54:20.819Z,102881.34
2023-01-23T22:56:50.814Z,102880.78
2023-01-23T22:59:19.615Z,102878.09
2023-01-23T23:01:48.756Z,102890.84
2023-01-23T23:04:17.905Z,102882.28
2023-01-23T23:06:46.773Z,102883.88
2023-01-23T23:09:15.795Z,102878.75
2023-01-23T23:11:47.305Z,102876.63
2023-01-23T23:14:17.495Z,102891.69
2023-01-23T23:16:45.974Z,102888.34
2023-01-23T23:19:14.426Z,102884.34
2023-01-23T23:21:42.848Z,102883.25
2023-01-23T23:24:14.028Z,102888.84
2023-01-23T23:26:42.870Z,102882.50
2023-01-23T23:29:11.465Z,102891.59
2023-01-23T23:31:41.947Z,102894.75
2023-01-23T23:34:10.484Z,102892.84
2023-01-23T23:36:38.931Z,102879.06
2023-01-23T23:39:07.571Z,102890.13
2023-01-23T23:41:36.092Z,102885.19
2023-01-23T23:44:04.962Z,102889.84
2023-01-23T23:46:33.510Z,102883.81
2023-01-23T23:49:03.409Z,102884.47
2023-01-23T23:51:31.984Z,102896.63
2023-01-23T23:54:00.572Z,102902.59
2023-01-23T23:56:32.051Z,102900.66
2023-01-23T23:59:00.774Z,102900.09
